Time,TemperatureF,DewpointF,PressureIn,WindDirection,WindDirectionDegrees,WindSpeedMPH,WindSpeedGustMPH,Humidity,HourlyPrecipIn,Conditions,Clouds,dailyrainin,SoftwareType,DateUTC
2013-02-20 00:00:00,43.6,40.0,30.12,ENE,61,3.0,9.0,87,0.08,,---,0.00,VWS V14.01,2013-02-20 06:00:00,
2013-02-20 00:02:00,43.6,40.3,30.11,ENE,58,5.0,7.0,88,0.06,,---,0.00,VWS V14.01,2013-02-20 06:02:00,
2013-02-20 00:05:00,43.6,40.3,30.11,ENE,63,5.0,7.0,88,0.06,,---,0.00,VWS V14.01,2013-02-20 06:05:00,
2013-02-20 00:08:00,43.6,40.0,30.11,ENE,65,3.0,7.0,87,0.07,,---,0.01,VWS V14.01,2013-02-20 06:08:00,
2013-02-20 00:11:00,43.6,40.3,30.11,ENE,67,3.0,7.0,88,0.07,,---,0.01,VWS V14.01,2013-02-20 06:11:00,
2013-02-20 00:14:00,43.6,40.3,30.11,ENE,63,4.0,8.0,88,0.07,,---,0.01,VWS V14.01,2013-02-20 06:14:00,
2013-02-20 00:17:00,43.5,40.2,30.11,ENE,57,3.0,8.0,88,0.07,,---,0.01,VWS V14.01,2013-02-20 06:17:00,
2013-02-20 00:20:00,43.5,40.2,30.11,ENE,75,2.0,8.0,88,0.07,,---,0.01,VWS V14.01,2013-02-20 06:20:00,
2013-02-20 00:23:00,43.5,40.2,30.12,ENE,68,1.0,8.0,88,0.08,,---,0.02,VWS V14.01,2013-02-20 06:23:00,
2013-02-20 00:26:00,43.6,40.3,30.12,ENE,68,0.0,8.0,88,0.08,,---,0.02,VWS V14.01,2013-02-20 06:26:00,
2013-02-20 00:29:00,43.5,40.2,30.12,ENE,68,2.0,8.0,88,0.08,,---,0.02,VWS V14.01,2013-02-20 06:29:00,
2013-02-20 00:30:00,43.5,40.2,30.12,East,88,3.0,8.0,88,0.08,,---,0.02,VWS V14.01,2013-02-20 06:30:00,
2013-02-20 00:32:00,43.5,40.2,30.12,East,88,2.0,3.0,88,0.06,,---,0.03,VWS V14.01,2013-02-20 06:32:00,
2013-02-20 00:35:00,43.5,40.5,30.12,East,92,1.0,3.0,89,0.06,,---,0.03,VWS V14.01,2013-02-20 06:35:00,
2013-02-20 00:38:00,43.6,40.6,30.12,East,87,3.0,3.0,89,0.06,,---,0.03,VWS V14.01,2013-02-20 06:38:00,
2013-02-20 00:41:00,43.6,40.6,30.11,East,81,2.0,5.0,89,0.06,,---,0.03,VWS V14.01,2013-02-20 06:41:00,
2013-02-20 00:44:00,43.6,40.6,30.11,East,80,1.0,5.0,89,0.06,,---,0.03,VWS V14.01,2013-02-20 06:44:00,
2013-02-20 00:47:00,43.5,40.5,30.11,East,80,1.0,5.0,89,0.07,,---,0.04,VWS V14.01,2013-02-20 06:47:00,
2013-02-20 00:50:00,43.5,40.5,30.12,East,80,0.0,5.0,89,0.07,,---,0.04,VWS V14.01,2013-02-20 06:50:00,
2013-02-20 00:53:00,43.5,40.5,30.13,East,80,0.0,5.0,89,0.07,,---,0.04,VWS V14.01,2013-02-20 06:53:00,
2013-02-20 00:56:00,43.4,40.4,30.13,East,80,0.0,5.0,89,0.07,,---,0.04,VWS V14.01,2013-02-20 06:56:00,
2013-02-20 00:59:00,43.4,40.4,30.13,East,80,0.0,5.0,89,0.08,,---,0.05,VWS V14.01,2013-02-20 06:59:00,
2013-02-20 01:00:00,43.4,40.4,30.13,East,80,0.0,5.0,89,0.08,,---,0.05,VWS V14.01,2013-02-20 07:00:00,
2013-02-20 01:02:00,43.4,40.4,30.13,East,81,1.0,3.0,89,0.05,,---,0.05,VWS V14.01,2013-02-20 07:02:00,
2013-02-20 01:05:00,43.4,40.7,30.12,East,83,0.0,3.0,90,0.05,,---,0.05,VWS V14.01,2013-02-20 07:05:00,
2013-02-20 01:08:00,43.5,40.8,30.13,East,83,0.0,3.0,90,0.05,,---,0.05,VWS V14.01,2013-02-20 07:08:00,
2013-02-20 01:11:00,43.5,40.8,30.13,East,83,0.0,3.0,90,0.05,,---,0.05,VWS V14.01,2013-02-20 07:11:00,
2013-02-20 01:14:00,43.5,40.8,30.12,East,83,2.0,3.0,90,0.05,,---,0.05,VWS V14.01,2013-02-20 07:14:00,
2013-02-20 01:17:00,43.5,40.8,30.12,East,88,2.0,3.0,90,0.06,,---,0.06,VWS V14.01,2013-02-20 07:17:00,
2013-02-20 01:20:00,43.5,40.8,30.11,East,100,6.0,6.0,90,0.06,,---,0.06,VWS V14.01,2013-02-20 07:20:00,
2013-02-20 01:23:00,43.5,40.8,30.11,ESE,105,4.0,6.0,90,0.06,,---,0.06,VWS V14.01,2013-02-20 07:23:00,
2013-02-20 01:26:00,43.5,40.8,30.12,ESE,103,0.0,6.0,90,0.06,,---,0.06,VWS V14.01,2013-02-20 07:26:00,
2013-02-20 01:33:00,43.4,40.7,30.11,East,83,7.0,8.0,90,0.05,,---,0.07,VWS V14.01,2013-02-20 07:33:00,
2013-02-20 01:36:00,43.4,40.4,30.11,ENE,73,5.0,8.0,89,0.05,,---,0.07,VWS V14.01,2013-02-20 07:36:00,
2013-02-20 01:42:00,43.4,40.4,30.13,ENE,71,1.0,8.0,89,0.05,,---,0.07,VWS V14.01,2013-02-20 07:42:00,
2013-02-20 01:45:00,43.3,40.3,30.13,ENE,77,2.0,8.0,89,0.06,,---,0.08,VWS V14.01,2013-02-20 07:45:00,
2013-02-20 01:48:00,43.3,40.6,30.14,East,99,1.0,8.0,90,0.06,,---,0.08,VWS V14.01,2013-02-20 07:48:00,
2013-02-20 01:51:00,43.3,40.6,30.14,East,93,5.0,8.0,90,0.06,,---,0.08,VWS V14.01,2013-02-20 07:51:00,
2013-02-20 01:54:00,43.3,40.6,30.14,ESE,103,2.0,8.0,90,0.07,,---,0.09,VWS V14.01,2013-02-20 07:54:00,
2013-02-20 01:57:00,43.3,40.6,30.13,East,96,5.0,8.0,90,0.07,,---,0.09,VWS V14.01,2013-02-20 07:57:00,
2013-02-20 02:00:00,43.2,40.5,30.12,East,86,3.0,8.0,90,0.07,,---,0.09,VWS V14.01,2013-02-20 08:00:00,
2013-02-20 02:03:00,43.1,40.4,30.12,East,84,5.0,7.0,90,0.04,,---,0.09,VWS V14.01,2013-02-20 08:03:00,
2013-02-20 02:06:00,43.1,40.4,30.11,East,87,5.0,9.0,90,0.05,,---,0.10,VWS V14.01,2013-02-20 08:06:00,
2013-02-20 02:09:00,43.1,40.4,30.11,East,88,7.0,9.0,90,0.05,,---,0.10,VWS V14.01,2013-02-20 08:09:00,
2013-02-20 02:12:00,43.0,40.6,30.11,East,100,8.0,9.0,91,0.05,,---,0.10,VWS V14.01,2013-02-20 08:12:00,
2013-02-20 02:15:00,42.9,40.5,30.11,East,82,7.0,9.0,91,0.06,,---,0.11,VWS V14.01,2013-02-20 08:15:00,
2013-02-20 02:18:00,42.9,40.5,30.11,East,96,6.0,9.0,91,0.06,,---,0.11,VWS V14.01,2013-02-20 08:18:00,
2013-02-20 02:21:00,42.9,40.5,30.11,East,94,8.0,9.0,91,0.06,,---,0.11,VWS V14.01,2013-02-20 08:21:00,
2013-02-20 02:24:00,42.9,40.5,30.10,East,88,9.0,10.0,91,0.06,,---,0.11,VWS V14.01,2013-02-20 08:24:00,
2013-02-20 02:27:00,42.9,40.5,30.09,East,92,7.0,10.0,91,0.07,,---,0.12,VWS V14.01,2013-02-20 08:27:00,
2013-02-20 02:30:00,42.9,40.5,30.09,East,84,6.0,11.0,91,0.07,,---,0.12,VWS V14.01,2013-02-20 08:30:00,
2013-02-20 02:33:00,42.8,40.4,30.08,East,94,10.0,11.0,91,0.06,,---,0.13,VWS V14.01,2013-02-20 08:33:00,
2013-02-20 02:36:00,42.8,40.4,30.07,East,92,7.0,11.0,91,0.06,,---,0.13,VWS V14.01,2013-02-20 08:36:00,
2013-02-20 02:39:00,42.7,40.5,30.07,East,82,8.0,14.0,92,0.06,,---,0.13,VWS V14.01,2013-02-20 08:39:00,
2013-02-20 02:42:00,42.7,40.5,30.07,East,92,10.0,14.0,92,0.06,,---,0.13,VWS V14.01,2013-02-20 08:42:00,
2013-02-20 02:45:00,42.7,40.3,30.06,ESE,105,7.0,14.0,91,0.07,,---,0.14,VWS V14.01,2013-02-20 08:45:00,
2013-02-20 02:55:00,42.6,40.4,30.06,East,86,8.0,15.0,92,0.08,,---,0.15,VWS V14.01,2013-02-20 08:55:00,
2013-02-20 02:58:00,42.6,40.4,30.05,East,88,9.0,15.0,92,0.08,,---,0.15,VWS V14.01,2013-02-20 08:58:00,
2013-02-20 03:00:00,42.6,40.4,30.05,East,82,8.0,15.0,92,0.08,,---,0.15,VWS V14.01,2013-02-20 09:00:00,
2013-02-20 03:01:00,42.6,40.4,30.05,East,88,7.0,13.0,92,0.06,,---,0.15,VWS V14.01,2013-02-20 09:01:00,
2013-02-20 03:04:00,42.6,40.4,30.04,East,95,6.0,15.0,92,0.07,,---,0.16,VWS V14.01,2013-02-20 09:04:00,
2013-02-20 03:07:00,42.6,40.4,30.03,ESE,107,9.0,15.0,92,0.07,,---,0.16,VWS V14.01,2013-02-20 09:07:00,
2013-02-20 03:10:00,42.6,40.2,30.03,ESE,109,7.0,15.0,91,0.07,,---,0.16,VWS V14.01,2013-02-20 09:10:00,
2013-02-20 03:13:00,42.6,40.2,30.03,East,87,6.0,15.0,91,0.08,,---,0.17,VWS V14.01,2013-02-20 09:13:00,
2013-02-20 03:16:00,42.6,40.2,30.03,ESE,106,5.0,15.0,91,0.08,,---,0.17,VWS V14.01,2013-02-20 09:16:00,
2013-02-20 03:19:00,42.6,40.2,30.03,East,96,5.0,15.0,91,0.08,,---,0.17,VWS V14.01,2013-02-20 09:19:00,
2013-02-20 03:22:00,42.6,40.2,30.03,ENE,78,8.0,15.0,91,0.09,,---,0.18,VWS V14.01,2013-02-20 09:22:00,
2013-02-20 03:25:00,42.6,40.2,30.03,ESE,106,7.0,15.0,91,0.09,,---,0.18,VWS V14.01,2013-02-20 09:25:00,
2013-02-20 03:28:00,42.6,40.2,30.02,SE,124,8.0,15.0,91,0.09,,---,0.18,VWS V14.01,2013-02-20 09:28:00,
2013-02-20 03:30:00,42.6,40.2,30.02,East,89,7.0,15.0,91,0.10,,---,0.19,VWS V14.01,2013-02-20 09:30:00,
2013-02-20 03:31:00,42.7,40.3,30.02,ESE,109,9.0,11.0,91,0.07,,---,0.19,VWS V14.01,2013-02-20 09:31:00,
2013-02-20 03:34:00,42.8,40.4,30.02,East,100,5.0,11.0,91,0.07,,---,0.19,VWS V14.01,2013-02-20 09:34:00,
2013-02-20 03:37:00,42.8,40.4,30.02,East,89,8.0,11.0,91,0.07,,---,0.19,VWS V14.01,2013-02-20 09:37:00,
2013-02-20 03:40:00,42.8,40.1,30.00,SE,130,10.0,12.0,90,0.07,,---,0.19,VWS V14.01,2013-02-20 09:40:00,
2013-02-20 03:43:00,42.8,40.1,29.98,East,96,10.0,16.0,90,0.08,,---,0.20,VWS V14.01,2013-02-20 09:43:00,
2013-02-20 03:46:00,42.8,40.1,29.99,ESE,104,9.0,16.0,90,0.08,,---,0.20,VWS V14.01,2013-02-20 09:46:00,
2013-02-20 03:49:00,42.9,39.9,30.00,ESE,112,10.0,16.0,89,0.08,,---,0.20,VWS V14.01,2013-02-20 09:49:00,
2013-02-20 03:52:00,42.9,39.9,30.00,ESE,106,8.0,16.0,89,0.08,,---,0.20,VWS V14.01,2013-02-20 09:52:00,
2013-02-20 03:55:00,42.9,39.9,30.00,East,98,8.0,16.0,89,0.09,,---,0.21,VWS V14.01,2013-02-20 09:55:00,
2013-02-20 03:58:00,43.0,40.0,30.00,ESE,102,4.0,16.0,89,0.09,,---,0.21,VWS V14.01,2013-02-20 09:58:00,
2013-02-20 04:00:00,43.0,40.0,30.00,East,96,6.0,16.0,89,0.09,,---,0.21,VWS V14.01,2013-02-20 10:00:00,
2013-02-20 04:01:00,43.0,40.0,30.00,ENE,65,9.0,9.0,89,0.06,,---,0.21,VWS V14.01,2013-02-20 10:01:00,
2013-02-20 04:04:00,43.0,40.0,29.99,East,89,5.0,13.0,89,0.06,,---,0.21,VWS V14.01,2013-02-20 10:04:00,
2013-02-20 04:07:00,43.0,39.7,29.98,ENE,75,7.0,13.0,88,0.06,,---,0.21,VWS V14.01,2013-02-20 10:07:00,
2013-02-20 04:10:00,43.0,40.0,29.98,East,82,10.0,13.0,89,0.06,,---,0.21,VWS V14.01,2013-02-20 10:10:00,
2013-02-20 04:13:00,43.0,40.0,29.99,East,90,8.0,13.0,89,0.06,,---,0.21,VWS V14.01,2013-02-20 10:13:00,
2013-02-20 04:16:00,43.0,39.7,30.00,East,82,7.0,13.0,88,0.06,,---,0.21,VWS V14.01,2013-02-20 10:16:00,
2013-02-20 04:19:00,43.0,39.7,30.01,East,80,2.0,13.0,88,0.06,,---,0.21,VWS V14.01,2013-02-20 10:19:00,
2013-02-20 04:22:00,43.0,40.0,30.01,ENE,60,2.0,13.0,89,0.06,,---,0.21,VWS V14.01,2013-02-20 10:22:00,
2013-02-20 04:25:00,43.0,39.7,30.00,ENE,75,2.0,13.0,88,0.06,,---,0.21,VWS V14.01,2013-02-20 10:25:00,
2013-02-20 04:28:00,43.1,40.1,30.00,East,81,7.0,13.0,89,0.06,,---,0.21,VWS V14.01,2013-02-20 10:28:00,
2013-02-20 04:30:00,43.1,39.8,30.01,East,85,7.0,13.0,88,0.06,,---,0.21,VWS V14.01,2013-02-20 10:30:00,
2013-02-20 04:31:00,43.1,39.8,30.01,ESE,103,2.0,7.0,88,0.02,,---,0.21,VWS V14.01,2013-02-20 10:31:00,
2013-02-20 04:34:00,43.1,40.1,30.01,ESE,109,2.0,7.0,89,0.02,,---,0.21,VWS V14.01,2013-02-20 10:34:00,
2013-02-20 04:37:00,43.1,39.8,30.01,East,93,5.0,7.0,88,0.02,,---,0.21,VWS V14.01,2013-02-20 10:37:00,
2013-02-20 04:40:00,43.1,39.8,30.00,East,93,7.0,7.0,88,0.02,,---,0.21,VWS V14.01,2013-02-20 10:40:00,
2013-02-20 04:43:00,43.2,39.9,30.00,East,89,3.0,8.0,88,0.02,,---,0.21,VWS V14.01,2013-02-20 10:43:00,
2013-02-20 04:46:00,43.2,39.6,30.00,East,93,6.0,9.0,87,0.02,,---,0.21,VWS V14.01,2013-02-20 10:46:00,
2013-02-20 04:49:00,43.2,39.9,30.00,East,96,3.0,9.0,88,0.02,,---,0.21,VWS V14.01,2013-02-20 10:49:00,
2013-02-20 04:52:00,43.3,40.0,30.01,East,82,6.0,9.0,88,0.02,,---,0.21,VWS V14.01,2013-02-20 10:52:00,
2013-02-20 04:55:00,43.3,39.7,30.00,ENE,75,5.0,9.0,87,0.02,,---,0.21,VWS V14.01,2013-02-20 10:55:00,
2013-02-20 04:58:00,43.3,39.7,30.02,ENE,65,0.0,9.0,87,0.02,,---,0.21,VWS V14.01,2013-02-20 10:58:00,
2013-02-20 05:00:00,43.3,39.7,30.03,ENE,65,0.0,9.0,87,0.02,,---,0.21,VWS V14.01,2013-02-20 11:00:00,
2013-02-20 05:01:00,43.3,39.7,30.04,East,90,5.0,6.0,87,0.00,,---,0.21,VWS V14.01,2013-02-20 11:01:00,
2013-02-20 05:05:00,43.4,39.2,30.05,SE,128,0.0,6.0,85,0.00,,---,0.21,VWS V14.01,2013-02-20 11:05:00,
2013-02-20 05:08:00,43.4,39.2,30.07,SE,128,0.0,6.0,85,0.00,,---,0.21,VWS V14.01,2013-02-20 11:08:00,
2013-02-20 05:11:00,43.5,39.3,30.06,East,92,3.0,6.0,85,0.00,,---,0.21,VWS V14.01,2013-02-20 11:11:00,
2013-02-20 05:14:00,43.6,39.4,30.04,ENE,69,1.0,6.0,85,0.00,,---,0.21,VWS V14.01,2013-02-20 11:14:00,
2013-02-20 05:17:00,43.7,39.8,30.03,ENE,78,7.0,8.0,86,0.00,,---,0.21,VWS V14.01,2013-02-20 11:17:00,
2013-02-20 05:20:00,43.7,39.5,30.02,ENE,61,5.0,9.0,85,0.00,,---,0.21,VWS V14.01,2013-02-20 11:20:00,
2013-02-20 05:23:00,43.6,39.7,30.04,ENE,71,2.0,9.0,86,0.00,,---,0.21,VWS V14.01,2013-02-20 11:23:00,
2013-02-20 05:26:00,43.6,39.4,30.06,ENE,57,2.0,9.0,85,0.00,,---,0.21,VWS V14.01,2013-02-20 11:26:00,
2013-02-20 05:29:00,43.6,39.7,30.07,North,355,1.0,9.0,86,0.00,,---,0.21,VWS V14.01,2013-02-20 11:29:00,
2013-02-20 05:30:00,43.6,40.0,30.07,North,355,3.0,9.0,87,0.00,,---,0.21,VWS V14.01,2013-02-20 11:30:00,
2013-02-20 05:32:00,43.5,39.9,30.08,NW,326,3.0,4.0,87,0.00,,---,0.21,VWS V14.01,2013-02-20 11:32:00,
2013-02-20 05:35:00,43.6,40.0,30.08,NW,325,3.0,5.0,87,0.00,,---,0.21,VWS V14.01,2013-02-20 11:35:00,
2013-02-20 05:38:00,43.5,39.9,30.09,NNW,333,3.0,6.0,87,0.00,,---,0.21,VWS V14.01,2013-02-20 11:38:00,
2013-02-20 05:41:00,43.5,39.9,30.08,North,10,3.0,6.0,87,0.00,,---,0.21,VWS V14.01,2013-02-20 11:41:00,
2013-02-20 05:44:00,43.4,39.8,30.07,NNE,20,3.0,6.0,87,0.00,,---,0.21,VWS V14.01,2013-02-20 11:44:00,
2013-02-20 05:47:00,43.4,39.8,30.07,NNE,27,5.0,6.0,87,0.00,,---,0.21,VWS V14.01,2013-02-20 11:47:00,
2013-02-20 05:50:00,43.2,39.9,30.06,NNE,26,2.0,8.0,88,0.01,,---,0.22,VWS V14.01,2013-02-20 11:50:00,
2013-02-20 05:53:00,43.0,39.7,30.07,NNE,32,2.0,8.0,88,0.01,,---,0.22,VWS V14.01,2013-02-20 11:53:00,
2013-02-20 05:56:00,43.0,40.0,30.07,NNE,24,5.0,8.0,89,0.01,,---,0.22,VWS V14.01,2013-02-20 11:56:00,
2013-02-20 05:59:00,42.9,40.2,30.07,NNE,15,0.0,8.0,90,0.01,,---,0.22,VWS V14.01,2013-02-20 11:59:00,
2013-02-20 06:00:00,42.9,40.2,30.07,NNE,15,3.0,8.0,90,0.01,,---,0.22,VWS V14.01,2013-02-20 12:00:00,
2013-02-20 06:02:00,42.8,40.1,30.07,NNE,21,4.0,5.0,90,0.01,,---,0.22,VWS V14.01,2013-02-20 12:02:00,
2013-02-20 06:05:00,42.7,40.0,30.06,NE,48,4.0,5.0,90,0.01,,---,0.22,VWS V14.01,2013-02-20 12:05:00,
2013-02-20 06:08:00,42.7,40.0,30.06,ENE,62,3.0,5.0,90,0.02,,---,0.23,VWS V14.01,2013-02-20 12:08:00,
2013-02-20 06:11:00,42.6,40.2,30.05,ENE,77,5.0,7.0,91,0.02,,---,0.23,VWS V14.01,2013-02-20 12:11:00,
2013-02-20 06:14:00,42.6,40.2,30.05,East,84,6.0,9.0,91,0.02,,---,0.23,VWS V14.01,2013-02-20 12:14:00,
2013-02-20 06:17:00,42.6,40.2,30.05,ENE,67,4.0,9.0,91,0.02,,---,0.23,VWS V14.01,2013-02-20 12:17:00,
2013-02-20 06:20:00,42.6,40.2,30.05,ENE,61,4.0,9.0,91,0.02,,---,0.23,VWS V14.01,2013-02-20 12:20:00,
2013-02-20 06:23:00,42.6,40.2,30.05,NE,49,3.0,9.0,91,0.02,,---,0.23,VWS V14.01,2013-02-20 12:23:00,
2013-02-20 06:26:00,42.6,40.2,30.05,NNE,22,3.0,9.0,91,0.02,,---,0.23,VWS V14.01,2013-02-20 12:26:00,
2013-02-20 06:29:00,42.6,40.2,30.04,NE,45,4.0,9.0,91,0.02,,---,0.23,VWS V14.01,2013-02-20 12:29:00,
2013-02-20 06:30:00,42.6,40.2,30.04,NE,46,4.0,9.0,91,0.02,,---,0.23,VWS V14.01,2013-02-20 12:30:00,
2013-02-20 06:32:00,42.6,40.2,30.04,ENE,61,8.0,8.0,91,0.02,,---,0.23,VWS V14.01,2013-02-20 12:32:00,
2013-02-20 06:35:00,42.6,40.2,30.03,East,79,7.0,9.0,91,0.02,,---,0.23,VWS V14.01,2013-02-20 12:35:00,
2013-02-20 06:38:00,42.5,39.8,30.03,East,86,7.0,10.0,90,0.02,,---,0.23,VWS V14.01,2013-02-20 12:38:00,
2013-02-20 06:41:00,42.5,39.8,30.02,East,85,11.0,12.0,90,0.02,,---,0.23,VWS V14.01,2013-02-20 12:41:00,
2013-02-20 06:44:00,42.5,39.8,30.02,ENE,70,9.0,13.0,90,0.02,,---,0.23,VWS V14.01,2013-02-20 12:44:00,
2013-02-20 06:47:00,42.5,39.8,30.04,ENE,63,7.0,13.0,90,0.02,,---,0.23,VWS V14.01,2013-02-20 12:47:00,
2013-02-20 06:50:00,42.5,39.8,30.05,East,80,7.0,13.0,90,0.02,,---,0.23,VWS V14.01,2013-02-20 12:50:00,
2013-02-20 06:53:00,42.5,39.8,30.05,ENE,67,5.0,13.0,90,0.02,,---,0.23,VWS V14.01,2013-02-20 12:53:00,
2013-02-20 06:56:00,42.5,39.8,30.05,East,80,8.0,13.0,90,0.02,,---,0.23,VWS V14.01,2013-02-20 12:56:00,
2013-02-20 06:59:00,42.5,39.8,30.04,ENE,74,4.0,13.0,90,0.02,,---,0.23,VWS V14.01,2013-02-20 12:59:00,
2013-02-20 07:00:00,42.5,39.8,30.04,ENE,73,3.0,13.0,90,0.02,,---,0.23,VWS V14.01,2013-02-20 13:00:00,
2013-02-20 07:02:00,42.5,39.8,30.04,East,79,6.0,9.0,90,0.01,,---,0.23,VWS V14.01,2013-02-20 13:02:00,
2013-02-20 07:05:00,42.5,39.8,30.04,ENE,66,7.0,9.0,90,0.01,,---,0.23,VWS V14.01,2013-02-20 13:05:00,
2013-02-20 07:08:00,42.5,39.8,30.04,ENE,69,2.0,10.0,90,0.01,,---,0.23,VWS V14.01,2013-02-20 13:08:00,
2013-02-20 07:11:00,42.5,40.1,30.04,ENE,69,4.0,10.0,91,0.01,,---,0.23,VWS V14.01,2013-02-20 13:11:00,
2013-02-20 07:14:00,42.5,40.1,30.04,ENE,65,3.0,10.0,91,0.01,,---,0.23,VWS V14.01,2013-02-20 13:14:00,
2013-02-20 07:17:00,42.5,40.1,30.04,ENE,65,4.0,10.0,91,0.01,,---,0.23,VWS V14.01,2013-02-20 13:17:00,
2013-02-20 07:20:00,42.5,40.1,30.04,ENE,71,5.0,10.0,91,0.01,,---,0.23,VWS V14.01,2013-02-20 13:20:00,
2013-02-20 07:24:00,42.5,40.1,30.04,East,87,3.0,10.0,91,0.01,,---,0.23,VWS V14.01,2013-02-20 13:24:00,
2013-02-20 07:27:00,42.5,40.1,30.04,ENE,75,5.0,10.0,91,0.01,,---,0.23,VWS V14.01,2013-02-20 13:27:00,
2013-02-20 07:30:00,42.5,39.8,30.04,ENE,65,4.0,10.0,90,0.01,,---,0.23,VWS V14.01,2013-02-20 13:30:00,
2013-02-20 07:33:00,42.5,39.8,30.04,ENE,75,8.0,9.0,90,0.00,,---,0.23,VWS V14.01,2013-02-20 13:33:00,
2013-02-20 07:36:00,42.6,39.9,30.04,East,80,5.0,9.0,90,0.00,,---,0.23,VWS V14.01,2013-02-20 13:36:00,
2013-02-20 07:39:00,42.6,39.9,30.04,East,90,3.0,9.0,90,0.00,,---,0.23,VWS V14.01,2013-02-20 13:39:00,
2013-02-20 07:42:00,42.6,39.9,30.04,East,88,5.0,10.0,90,0.00,,---,0.23,VWS V14.01,2013-02-20 13:42:00,
2013-02-20 07:45:00,42.6,39.9,30.03,ENE,78,10.0,10.0,90,0.00,,---,0.23,VWS V14.01,2013-02-20 13:45:00,
2013-02-20 07:48:00,42.7,40.0,30.03,East,83,8.0,13.0,90,0.00,,---,0.23,VWS V14.01,2013-02-20 13:48:00,
2013-02-20 07:51:00,42.7,40.0,30.04,ENE,78,8.0,13.0,90,0.00,,---,0.23,VWS V14.01,2013-02-20 13:51:00,
2013-02-20 07:54:00,42.7,39.7,30.03,East,80,6.0,13.0,89,0.00,,---,0.23,VWS V14.01,2013-02-20 13:54:00,
2013-02-20 07:57:00,42.7,39.7,30.04,ENE,70,7.0,13.0,89,0.00,,---,0.23,VWS V14.01,2013-02-20 13:57:00,
2013-02-20 08:00:00,42.7,40.0,30.04,ENE,70,7.0,13.0,90,0.00,,---,0.23,VWS V14.01,2013-02-20 14:00:00,
2013-02-20 08:03:00,42.7,39.7,30.03,East,101,13.0,13.0,89,0.00,,---,0.23,VWS V14.01,2013-02-20 14:03:00,
2013-02-20 08:06:00,42.7,39.7,30.03,East,82,7.0,13.0,89,0.00,,---,0.23,VWS V14.01,2013-02-20 14:06:00,
2013-02-20 08:09:00,42.6,39.6,30.03,East,100,7.0,13.0,89,0.00,,---,0.23,VWS V14.01,2013-02-20 14:09:00,
2013-02-20 08:12:00,42.6,39.6,30.03,East,87,9.0,14.0,89,0.00,,---,0.23,VWS V14.01,2013-02-20 14:12:00,
2013-02-20 08:15:00,42.6,39.6,30.03,ENE,76,9.0,14.0,89,0.00,,---,0.23,VWS V14.01,2013-02-20 14:15:00,
2013-02-20 08:18:00,42.6,39.6,30.02,East,88,10.0,14.0,89,0.00,,---,0.23,VWS V14.01,2013-02-20 14:18:00,
2013-02-20 08:21:00,42.6,39.3,30.02,East,80,6.0,14.0,88,0.00,,---,0.23,VWS V14.01,2013-02-20 14:21:00,
2013-02-20 08:24:00,42.6,39.6,30.02,ENE,64,7.0,14.0,89,0.00,,---,0.23,VWS V14.01,2013-02-20 14:24:00,
2013-02-20 08:27:00,42.6,39.3,30.02,ENE,78,5.0,14.0,88,0.00,,---,0.23,VWS V14.01,2013-02-20 14:27:00,
2013-02-20 08:30:00,42.5,39.5,30.02,East,93,7.0,14.0,89,0.00,,---,0.23,VWS V14.01,2013-02-20 14:30:00,
2013-02-20 08:33:00,42.5,39.5,30.02,ENE,71,7.0,10.0,89,0.00,,---,0.23,VWS V14.01,2013-02-20 14:33:00,
2013-02-20 08:36:00,42.6,39.6,30.02,East,96,8.0,10.0,89,0.00,,---,0.23,VWS V14.01,2013-02-20 14:36:00,
2013-02-20 08:39:00,42.6,39.6,30.02,ESE,105,5.0,10.0,89,0.00,,---,0.23,VWS V14.01,2013-02-20 14:39:00,
2013-02-20 08:42:00,42.7,39.7,30.02,East,89,8.0,10.0,89,0.00,,---,0.23,VWS V14.01,2013-02-20 14:42:00,
2013-02-20 08:45:00,42.7,39.4,30.02,ESE,121,4.0,10.0,88,0.00,,---,0.23,VWS V14.01,2013-02-20 14:45:00,
2013-02-20 08:48:00,42.8,39.8,30.02,East,92,6.0,10.0,89,0.00,,---,0.23,VWS V14.01,2013-02-20 14:48:00,
2013-02-20 08:51:00,42.8,39.5,30.02,East,81,5.0,11.0,88,0.00,,---,0.23,VWS V14.01,2013-02-20 14:51:00,
2013-02-20 08:54:00,42.9,39.6,30.02,East,86,8.0,11.0,88,0.00,,---,0.23,VWS V14.01,2013-02-20 14:54:00,
2013-02-20 08:57:00,42.9,39.6,30.01,East,93,5.0,14.0,88,0.00,,---,0.23,VWS V14.01,2013-02-20 14:57:00,
2013-02-20 09:00:00,43.0,39.7,30.01,ENE,78,9.0,14.0,88,0.00,,---,0.23,VWS V14.01,2013-02-20 15:00:00,
2013-02-20 09:03:00,43.1,40.1,30.01,ESE,112,5.0,14.0,89,0.00,,---,0.23,VWS V14.01,2013-02-20 15:03:00,
2013-02-20 09:06:00,43.1,39.8,30.01,East,88,5.0,14.0,88,0.00,,---,0.23,VWS V14.01,2013-02-20 15:06:00,
2013-02-20 09:09:00,43.1,39.8,30.01,East,97,7.0,15.0,88,0.00,,---,0.23,VWS V14.01,2013-02-20 15:09:00,
2013-02-20 09:12:00,43.2,39.9,30.00,East,96,5.0,15.0,88,0.00,,---,0.23,VWS V14.01,2013-02-20 15:12:00,
2013-02-20 09:15:00,43.2,39.9,30.00,ESE,108,7.0,15.0,88,0.00,,---,0.23,VWS V14.01,2013-02-20 15:15:00,
2013-02-20 09:18:00,43.3,40.0,30.00,ESE,106,8.0,15.0,88,0.00,,---,0.23,VWS V14.01,2013-02-20 15:18:00,
2013-02-20 09:21:00,43.4,39.8,30.00,East,92,7.0,15.0,87,0.00,,---,0.23,VWS V14.01,2013-02-20 15:21:00,
2013-02-20 09:24:00,43.4,40.1,30.00,ENE,76,8.0,15.0,88,0.00,,---,0.23,VWS V14.01,2013-02-20 15:24:00,
2013-02-20 09:27:00,43.5,39.9,30.00,East,84,7.0,15.0,87,0.00,,---,0.23,VWS V14.01,2013-02-20 15:27:00,
2013-02-20 09:30:00,43.5,39.9,30.00,East,96,6.0,15.0,87,0.00,,---,0.23,VWS V14.01,2013-02-20 15:30:00,
2013-02-20 09:33:00,43.6,40.0,30.00,East,89,7.0,11.0,87,0.00,,---,0.23,VWS V14.01,2013-02-20 15:33:00,
2013-02-20 09:36:00,43.6,40.0,30.00,East,81,6.0,12.0,87,0.00,,---,0.23,VWS V14.01,2013-02-20 15:36:00,
2013-02-20 09:39:00,43.6,39.7,30.00,East,89,7.0,12.0,86,0.00,,---,0.23,VWS V14.01,2013-02-20 15:39:00,
2013-02-20 09:42:00,43.6,39.7,30.00,ENE,78,9.0,13.0,86,0.00,,---,0.23,VWS V14.01,2013-02-20 15:42:00,
2013-02-20 09:46:00,43.7,39.8,30.00,East,96,6.0,13.0,86,0.00,,---,0.23,VWS V14.01,2013-02-20 15:46:00,
2013-02-20 09:49:00,43.8,39.9,30.01,ESE,121,5.0,13.0,86,0.00,,---,0.23,VWS V14.01,2013-02-20 15:49:00,
2013-02-20 09:52:00,43.8,39.9,30.01,East,88,5.0,13.0,86,0.00,,---,0.23,VWS V14.01,2013-02-20 15:52:00,
2013-02-20 09:55:00,43.9,40.0,30.01,ESE,104,3.0,13.0,86,0.00,,---,0.23,VWS V14.01,2013-02-20 15:55:00,
2013-02-20 09:58:00,43.9,40.0,30.01,East,91,6.0,13.0,86,0.00,,---,0.23,VWS V14.01,2013-02-20 15:58:00,
2013-02-20 10:00:00,44.0,40.1,30.01,ESE,109,8.0,13.0,86,0.00,,---,0.23,VWS V14.01,2013-02-20 16:00:00,
2013-02-20 10:01:00,44.0,39.8,30.01,ESE,109,7.0,9.0,85,0.00,,---,0.23,VWS V14.01,2013-02-20 16:01:00,
2013-02-20 10:04:00,43.9,39.7,30.01,SE,124,3.0,12.0,85,0.00,,---,0.23,VWS V14.01,2013-02-20 16:04:00,
2013-02-20 10:07:00,43.9,39.7,30.01,East,99,5.0,12.0,85,0.00,,---,0.23,VWS V14.01,2013-02-20 16:07:00,
2013-02-20 10:10:00,44.0,39.8,30.01,East,90,7.0,12.0,85,0.00,,---,0.23,VWS V14.01,2013-02-20 16:10:00,
2013-02-20 10:13:00,44.0,40.1,30.01,East,98,6.0,12.0,86,0.00,,---,0.23,VWS V14.01,2013-02-20 16:13:00,
2013-02-20 10:16:00,44.1,39.9,30.01,ESE,113,7.0,12.0,85,0.00,,---,0.23,VWS V14.01,2013-02-20 16:16:00,
2013-02-20 10:19:00,44.1,40.2,30.01,ESE,113,3.0,12.0,86,0.00,,---,0.23,VWS V14.01,2013-02-20 16:19:00,
2013-02-20 10:22:00,44.1,40.2,30.01,ESE,105,1.0,12.0,86,0.00,,---,0.23,VWS V14.01,2013-02-20 16:22:00,
2013-02-20 10:25:00,44.2,40.0,30.01,East,96,8.0,13.0,85,0.00,,---,0.23,VWS V14.01,2013-02-20 16:25:00,
2013-02-20 10:28:00,44.2,40.3,30.01,ESE,115,9.0,13.0,86,0.00,,---,0.23,VWS V14.01,2013-02-20 16:28:00,
2013-02-20 10:30:00,44.2,39.7,30.01,East,96,7.0,13.0,84,0.00,,---,0.23,VWS V14.01,2013-02-20 16:30:00,
2013-02-20 10:31:00,44.3,40.1,30.01,East,94,10.0,10.0,85,0.00,,---,0.23,VWS V14.01,2013-02-20 16:31:00,
2013-02-20 10:34:00,44.3,40.1,30.01,East,83,9.0,11.0,85,0.00,,---,0.23,VWS V14.01,2013-02-20 16:34:00,
2013-02-20 10:37:00,44.4,40.5,30.01,ESE,121,8.0,14.0,86,0.00,,---,0.23,VWS V14.01,2013-02-20 16:37:00,
2013-02-20 10:40:00,44.5,40.0,30.00,ESE,114,4.0,14.0,84,0.00,,---,0.23,VWS V14.01,2013-02-20 16:40:00,
2013-02-20 10:43:00,44.6,39.8,30.00,ESE,106,5.0,14.0,83,0.00,,---,0.23,VWS V14.01,2013-02-20 16:43:00,
2013-02-20 10:46:00,44.7,40.2,30.00,ESE,105,4.0,14.0,84,0.00,,---,0.23,VWS V14.01,2013-02-20 16:46:00,
2013-02-20 10:49:00,44.8,40.0,30.00,ESE,102,9.0,14.0,83,0.00,,---,0.23,VWS V14.01,2013-02-20 16:49:00,
2013-02-20 10:52:00,44.8,39.7,29.99,East,97,13.0,14.0,82,0.00,,---,0.23,VWS V14.01,2013-02-20 16:52:00,
2013-02-20 10:55:00,44.8,39.7,29.99,ESE,103,7.0,14.0,82,0.00,,---,0.23,VWS V14.01,2013-02-20 16:55:00,
2013-02-20 10:58:00,44.9,39.8,29.99,ESE,114,4.0,14.0,82,0.00,,---,0.23,VWS V14.01,2013-02-20 16:58:00,
2013-02-20 11:00:00,44.9,39.8,29.99,ESE,102,5.0,14.0,82,0.00,,---,0.23,VWS V14.01,2013-02-20 17:00:00,
2013-02-20 11:01:00,44.9,39.8,29.99,ESE,107,8.0,10.0,82,0.00,,---,0.23,VWS V14.01,2013-02-20 17:01:00,
2013-02-20 11:04:00,44.9,39.4,29.99,ESE,123,11.0,14.0,81,0.00,,---,0.23,VWS V14.01,2013-02-20 17:04:00,
2013-02-20 11:07:00,44.9,39.4,29.99,SE,131,7.0,15.0,81,0.00,,---,0.23,VWS V14.01,2013-02-20 17:07:00,
2013-02-20 11:10:00,45.0,39.8,29.98,East,80,9.0,15.0,82,0.00,,---,0.23,VWS V14.01,2013-02-20 17:10:00,
2013-02-20 11:13:00,45.0,39.5,29.98,ESE,122,10.0,15.0,81,0.00,,---,0.23,VWS V14.01,2013-02-20 17:13:00,
2013-02-20 11:16:00,45.0,39.5,29.98,East,98,8.0,15.0,81,0.00,,---,0.23,VWS V14.01,2013-02-20 17:16:00,
2013-02-20 11:19:00,45.0,39.5,29.98,ESE,115,8.0,15.0,81,0.00,,---,0.23,VWS V14.01,2013-02-20 17:19:00,
2013-02-20 11:22:00,45.0,39.5,29.98,SE,128,7.0,15.0,81,0.00,,---,0.23,VWS V14.01,2013-02-20 17:22:00,
2013-02-20 11:25:00,45.0,39.2,29.97,ESE,111,11.0,18.0,80,0.00,,---,0.23,VWS V14.01,2013-02-20 17:25:00,
2013-02-20 11:28:00,45.0,39.5,29.97,SE,129,11.0,19.0,81,0.00,,---,0.23,VWS V14.01,2013-02-20 17:28:00,
2013-02-20 11:30:00,45.0,39.5,29.97,ESE,114,12.0,19.0,81,0.00,,---,0.23,VWS V14.01,2013-02-20 17:30:00,
2013-02-20 11:31:00,45.0,39.5,29.97,SE,125,8.0,15.0,81,0.00,,---,0.23,VWS V14.01,2013-02-20 17:31:00,
2013-02-20 11:34:00,45.0,39.8,29.97,ESE,121,12.0,16.0,82,0.00,,---,0.23,VWS V14.01,2013-02-20 17:34:00,
2013-02-20 11:37:00,45.0,39.8,29.96,SSE,150,17.0,17.0,82,0.00,,---,0.23,VWS V14.01,2013-02-20 17:37:00,
2013-02-20 11:40:00,45.0,39.8,29.96,SE,128,7.0,18.0,82,0.00,,---,0.23,VWS V14.01,2013-02-20 17:40:00,
2013-02-20 11:43:00,45.1,39.9,29.95,ESE,105,11.0,18.0,82,0.00,,---,0.23,VWS V14.01,2013-02-20 17:43:00,
2013-02-20 11:46:00,45.0,39.8,29.95,SE,139,10.0,20.0,82,0.00,,---,0.23,VWS V14.01,2013-02-20 17:46:00,
2013-02-20 11:49:00,45.0,39.5,29.95,SE,133,11.0,20.0,81,0.00,,---,0.23,VWS V14.01,2013-02-20 17:49:00,
2013-02-20 11:52:00,44.8,39.0,29.95,SE,140,13.0,20.0,80,0.00,,---,0.23,VWS V14.01,2013-02-20 17:52:00,
2013-02-20 11:55:00,44.7,39.2,29.95,SE,128,11.0,20.0,81,0.00,,---,0.23,VWS V14.01,2013-02-20 17:55:00,
2013-02-20 11:58:00,44.6,39.1,29.95,SE,128,11.0,20.0,81,0.00,,---,0.23,VWS V14.01,2013-02-20 17:58:00,
2013-02-20 12:00:00,44.6,39.1,29.95,SE,128,11.0,20.0,81,0.00,,---,0.23,VWS V14.01,2013-02-20 18:00:00,
2013-02-20 12:01:00,44.6,39.5,29.95,ESE,117,10.0,13.0,82,0.00,,---,0.23,VWS V14.01,2013-02-20 18:01:00,
2013-02-20 12:04:00,44.7,39.5,29.95,ESE,102,11.0,14.0,82,0.00,,---,0.23,VWS V14.01,2013-02-20 18:04:00,
2013-02-20 12:07:00,44.8,39.7,29.95,ESE,121,15.0,16.0,82,0.00,,---,0.23,VWS V14.01,2013-02-20 18:07:00,
2013-02-20 12:11:00,44.6,39.5,29.95,ESE,122,12.0,20.0,82,0.00,,---,0.23,VWS V14.01,2013-02-20 18:11:00,
2013-02-20 12:14:00,44.5,39.7,29.95,SE,139,6.0,20.0,83,0.00,,---,0.23,VWS V14.01,2013-02-20 18:14:00,
2013-02-20 12:17:00,44.5,39.4,29.95,ESE,109,10.0,20.0,82,0.00,,---,0.23,VWS V14.01,2013-02-20 18:17:00,
2013-02-20 12:20:00,44.4,39.6,29.94,ESE,122,7.0,20.0,83,0.00,,---,0.23,VWS V14.01,2013-02-20 18:20:00,
2013-02-20 12:23:00,44.4,39.6,29.94,ESE,109,8.0,20.0,83,0.00,,---,0.23,VWS V14.01,2013-02-20 18:23:00,
2013-02-20 12:26:00,44.3,39.5,29.94,ESE,105,10.0,20.0,83,0.00,,---,0.23,VWS V14.01,2013-02-20 18:26:00,
2013-02-20 12:29:00,44.2,39.7,29.94,ESE,115,13.0,20.0,84,0.00,,---,0.23,VWS V14.01,2013-02-20 18:29:00,
2013-02-20 12:30:00,44.2,39.4,29.94,ESE,104,11.0,20.0,83,0.00,,---,0.23,VWS V14.01,2013-02-20 18:30:00,
2013-02-20 12:32:00,44.2,39.7,29.95,ESE,110,13.0,18.0,84,0.00,,---,0.23,VWS V14.01,2013-02-20 18:32:00,
2013-02-20 12:35:00,44.1,39.6,29.94,ESE,111,8.0,18.0,84,0.00,,---,0.23,VWS V14.01,2013-02-20 18:35:00,
2013-02-20 12:38:00,44.0,39.5,29.94,SE,134,13.0,18.0,84,0.00,,---,0.23,VWS V14.01,2013-02-20 18:38:00,
2013-02-20 12:41:00,43.9,39.7,29.94,ESE,121,15.0,18.0,85,0.00,,---,0.23,VWS V14.01,2013-02-20 18:41:00,
2013-02-20 12:44:00,44.0,39.8,29.94,ESE,123,10.0,18.0,85,0.00,,---,0.23,VWS V14.01,2013-02-20 18:44:00,
2013-02-20 12:47:00,43.9,39.7,29.94,ESE,122,14.0,18.0,85,0.00,,---,0.23,VWS V14.01,2013-02-20 18:47:00,
2013-02-20 12:50:00,43.9,39.7,29.94,SE,133,13.0,18.0,85,0.00,,---,0.23,VWS V14.01,2013-02-20 18:50:00,
2013-02-20 12:53:00,43.9,39.7,29.93,ESE,110,13.0,18.0,85,0.00,,---,0.23,VWS V14.01,2013-02-20 18:53:00,
2013-02-20 12:56:00,43.8,39.6,29.93,ESE,121,13.0,18.0,85,0.00,,---,0.23,VWS V14.01,2013-02-20 18:56:00,
2013-02-20 12:59:00,43.9,40.0,29.93,ESE,113,7.0,18.0,86,0.00,,---,0.23,VWS V14.01,2013-02-20 18:59:00,
2013-02-20 13:00:00,43.9,40.0,29.93,ESE,106,9.0,18.0,86,0.00,,---,0.23,VWS V14.01,2013-02-20 19:00:00,
2013-02-20 13:02:00,44.0,40.1,29.93,ESE,107,9.0,14.0,86,0.00,,---,0.23,VWS V14.01,2013-02-20 19:02:00,
2013-02-20 13:05:00,44.1,40.2,29.92,SE,133,7.0,16.0,86,0.00,,---,0.23,VWS V14.01,2013-02-20 19:05:00,
2013-02-20 13:08:00,44.0,39.8,29.92,ESE,104,16.0,16.0,85,0.00,,---,0.23,VWS V14.01,2013-02-20 19:08:00,
2013-02-20 13:11:00,44.0,39.8,29.91,ESE,117,11.0,17.0,85,0.00,,---,0.23,VWS V14.01,2013-02-20 19:11:00,
2013-02-20 13:14:00,44.1,39.9,29.91,ESE,111,9.0,17.0,85,0.00,,---,0.23,VWS V14.01,2013-02-20 19:14:00,
2013-02-20 13:17:00,44.2,40.0,29.91,ESE,114,7.0,17.0,85,0.00,,---,0.23,VWS V14.01,2013-02-20 19:17:00,
2013-02-20 13:20:00,44.2,39.7,29.91,ESE,115,10.0,17.0,84,0.00,,---,0.23,VWS V14.01,2013-02-20 19:20:00,
2013-02-20 13:23:00,44.2,39.7,29.91,SE,126,10.0,17.0,84,0.00,,---,0.23,VWS V14.01,2013-02-20 19:23:00,
2013-02-20 13:26:00,44.3,39.8,29.91,ESE,116,7.0,17.0,84,0.00,,---,0.23,VWS V14.01,2013-02-20 19:26:00,
2013-02-20 13:29:00,44.4,39.9,29.90,ESE,120,9.0,17.0,84,0.00,,---,0.23,VWS V14.01,2013-02-20 19:29:00,
2013-02-20 13:30:00,44.5,40.0,29.90,ESE,109,8.0,17.0,84,0.00,,---,0.23,VWS V14.01,2013-02-20 19:30:00,
2013-02-20 13:32:00,44.6,40.1,29.90,ESE,119,10.0,15.0,84,0.00,,---,0.23,VWS V14.01,2013-02-20 19:32:00,
2013-02-20 13:35:00,44.5,39.7,29.90,ESE,122,15.0,15.0,83,0.00,,---,0.23,VWS V14.01,2013-02-20 19:35:00,
2013-02-20 13:38:00,44.5,39.7,29.90,ESE,117,13.0,15.0,83,0.00,,---,0.23,VWS V14.01,2013-02-20 19:38:00,
2013-02-20 13:41:00,44.5,39.7,29.89,ESE,119,8.0,15.0,83,0.00,,---,0.23,VWS V14.01,2013-02-20 19:41:00,
2013-02-20 13:44:00,44.5,39.7,29.89,ESE,121,9.0,15.0,83,0.00,,---,0.23,VWS V14.01,2013-02-20 19:44:00,
2013-02-20 13:47:00,44.5,39.7,29.89,SE,125,9.0,15.0,83,0.00,,---,0.23,VWS V14.01,2013-02-20 19:47:00,
2013-02-20 13:50:00,44.6,39.8,29.89,ESE,122,9.0,16.0,83,0.00,,---,0.23,VWS V14.01,2013-02-20 19:50:00,
2013-02-20 13:53:00,44.6,39.8,29.89,ESE,105,9.0,16.0,83,0.00,,---,0.23,VWS V14.01,2013-02-20 19:53:00,
2013-02-20 13:56:00,44.6,39.8,29.88,SE,132,6.0,16.0,83,0.00,,---,0.23,VWS V14.01,2013-02-20 19:56:00,
2013-02-20 13:59:00,44.7,39.9,29.88,ESE,121,9.0,16.0,83,0.00,,---,0.23,VWS V14.01,2013-02-20 19:59:00,
2013-02-20 14:00:00,44.7,39.9,29.88,ESE,121,8.0,16.0,83,0.00,,---,0.23,VWS V14.01,2013-02-20 20:00:00,
2013-02-20 14:02:00,44.8,40.0,29.88,East,89,6.0,12.0,83,0.00,,---,0.23,VWS V14.01,2013-02-20 20:02:00,
2013-02-20 14:05:00,44.9,39.8,29.88,ESE,117,13.0,15.0,82,0.00,,---,0.23,VWS V14.01,2013-02-20 20:05:00,
2013-02-20 14:08:00,44.8,39.7,29.88,SE,135,9.0,15.0,82,0.00,,---,0.23,VWS V14.01,2013-02-20 20:08:00,
2013-02-20 14:11:00,44.9,39.8,29.88,SE,128,6.0,15.0,82,0.00,,---,0.23,VWS V14.01,2013-02-20 20:11:00,
2013-02-20 14:14:00,45.0,39.8,29.87,ESE,117,13.0,15.0,82,0.00,,---,0.23,VWS V14.01,2013-02-20 20:14:00,
2013-02-20 14:17:00,45.1,39.9,29.87,ESE,102,11.0,16.0,82,0.00,,---,0.23,VWS V14.01,2013-02-20 20:17:00,
2013-02-20 14:20:00,45.2,40.0,29.87,SE,127,8.0,16.0,82,0.00,,---,0.23,VWS V14.01,2013-02-20 20:20:00,
2013-02-20 14:23:00,45.3,39.8,29.86,ESE,118,4.0,16.0,81,0.00,,---,0.23,VWS V14.01,2013-02-20 20:23:00,
2013-02-20 14:26:00,45.4,39.6,29.86,ESE,107,9.0,17.0,80,0.00,,---,0.23,VWS V14.01,2013-02-20 20:26:00,
2013-02-20 14:29:00,45.6,39.8,29.86,ESE,115,16.0,17.0,80,0.00,,---,0.23,VWS V14.01,2013-02-20 20:29:00,
2013-02-20 14:30:00,45.6,39.8,29.86,SE,126,14.0,17.0,80,0.00,,---,0.23,VWS V14.01,2013-02-20 20:30:00,
2013-02-20 14:33:00,45.5,39.4,29.86,SE,136,8.0,18.0,79,0.00,,---,0.23,VWS V14.01,2013-02-20 20:33:00,
2013-02-20 14:36:00,45.5,39.4,29.86,SE,127,10.0,18.0,79,0.00,,---,0.23,VWS V14.01,2013-02-20 20:36:00,
2013-02-20 14:39:00,45.6,39.5,29.86,SE,134,11.0,18.0,79,0.00,,---,0.23,VWS V14.01,2013-02-20 20:39:00,
2013-02-20 14:42:00,45.7,39.6,29.86,East,86,7.0,18.0,79,0.00,,---,0.23,VWS V14.01,2013-02-20 20:42:00,
2013-02-20 14:45:00,45.8,39.7,29.85,East,95,14.0,18.0,79,0.00,,---,0.23,VWS V14.01,2013-02-20 20:45:00,
2013-02-20 14:48:00,45.8,39.3,29.85,SE,126,14.0,18.0,78,0.00,,---,0.23,VWS V14.01,2013-02-20 20:48:00,
2013-02-20 14:51:00,45.8,39.3,29.85,SE,134,14.0,21.0,78,0.00,,---,0.23,VWS V14.01,2013-02-20 20:51:00,
2013-02-20 14:54:00,45.9,39.4,29.85,SE,132,13.0,21.0,78,0.00,,---,0.23,VWS V14.01,2013-02-20 20:54:00,
2013-02-20 14:57:00,46.0,39.5,29.84,ESE,121,17.0,21.0,78,0.00,,---,0.23,VWS V14.01,2013-02-20 20:57:00,
2013-02-20 15:00:00,46.1,39.3,29.84,ESE,123,8.0,21.0,77,0.00,,---,0.23,VWS V14.01,2013-02-20 21:00:00,
2013-02-20 15:03:00,46.2,39.4,29.84,SE,140,15.0,19.0,77,0.00,,---,0.23,VWS V14.01,2013-02-20 21:03:00,
2013-02-20 15:06:00,46.1,39.3,29.84,SE,133,11.0,19.0,77,0.00,,---,0.23,VWS V14.01,2013-02-20 21:06:00,
2013-02-20 15:09:00,46.1,39.3,29.84,SE,135,11.0,19.0,77,0.00,,---,0.23,VWS V14.01,2013-02-20 21:09:00,
2013-02-20 15:12:00,46.1,39.0,29.83,SE,130,14.0,19.0,76,0.00,,---,0.23,VWS V14.01,2013-02-20 21:12:00,
2013-02-20 15:15:00,46.0,38.9,29.83,ESE,105,15.0,21.0,76,0.00,,---,0.23,VWS V14.01,2013-02-20 21:15:00,
2013-02-20 15:18:00,46.0,39.2,29.83,ESE,123,13.0,21.0,77,0.00,,---,0.23,VWS V14.01,2013-02-20 21:18:00,
2013-02-20 15:21:00,46.0,39.2,29.83,ESE,122,12.0,21.0,77,0.00,,---,0.23,VWS V14.01,2013-02-20 21:21:00,
2013-02-20 15:24:00,45.9,39.1,29.83,SE,140,11.0,21.0,77,0.00,,---,0.23,VWS V14.01,2013-02-20 21:24:00,
2013-02-20 15:27:00,45.9,39.4,29.83,ESE,120,7.0,21.0,78,0.00,,---,0.23,VWS V14.01,2013-02-20 21:27:00,
2013-02-20 15:30:00,46.0,39.5,29.83,SE,129,9.0,21.0,78,0.00,,---,0.23,VWS V14.01,2013-02-20 21:30:00,
2013-02-20 15:33:00,46.1,39.3,29.82,ESE,122,11.0,16.0,77,0.00,,---,0.23,VWS V14.01,2013-02-20 21:33:00,
2013-02-20 15:36:00,46.1,39.6,29.82,ESE,117,9.0,20.0,78,0.00,,---,0.23,VWS V14.01,2013-02-20 21:36:00,
2013-02-20 15:39:00,46.0,39.2,29.82,ESE,120,7.0,20.0,77,0.00,,---,0.23,VWS V14.01,2013-02-20 21:39:00,
2013-02-20 15:42:00,46.0,39.2,29.82,SE,127,7.0,20.0,77,0.00,,---,0.23,VWS V14.01,2013-02-20 21:42:00,
2013-02-20 15:45:00,46.1,39.3,29.82,ESE,113,12.0,20.0,77,0.00,,---,0.23,VWS V14.01,2013-02-20 21:45:00,
2013-02-20 15:48:00,46.0,38.9,29.82,SE,125,12.0,20.0,76,0.00,,---,0.23,VWS V14.01,2013-02-20 21:48:00,
2013-02-20 15:51:00,45.9,39.1,29.81,SE,125,8.0,20.0,77,0.00,,---,0.23,VWS V14.01,2013-02-20 21:51:00,
2013-02-20 15:54:00,45.9,39.1,29.81,SE,130,10.0,20.0,77,0.00,,---,0.23,VWS V14.01,2013-02-20 21:54:00,
2013-02-20 15:57:00,45.9,38.8,29.81,East,98,9.0,20.0,76,0.00,,---,0.23,VWS V14.01,2013-02-20 21:57:00,
2013-02-20 16:00:00,45.9,39.1,29.81,ESE,110,5.0,20.0,77,0.00,,---,0.23,VWS V14.01,2013-02-20 22:00:00,
2013-02-20 16:03:00,45.9,38.8,29.81,SE,126,15.0,16.0,76,0.00,,---,0.23,VWS V14.01,2013-02-20 22:03:00,
2013-02-20 16:06:00,45.9,39.1,29.81,ESE,120,11.0,16.0,77,0.00,,---,0.23,VWS V14.01,2013-02-20 22:06:00,
2013-02-20 16:09:00,45.8,39.0,29.81,ESE,111,12.0,17.0,77,0.00,,---,0.23,VWS V14.01,2013-02-20 22:09:00,
2013-02-20 16:12:00,45.6,38.8,29.81,SE,128,12.0,18.0,77,0.00,,---,0.23,VWS V14.01,2013-02-20 22:12:00,
2013-02-20 16:15:00,45.6,38.8,29.81,East,101,8.0,18.0,77,0.00,,---,0.23,VWS V14.01,2013-02-20 22:15:00,
2013-02-20 16:18:00,45.6,38.8,29.81,ESE,102,15.0,18.0,77,0.00,,---,0.23,VWS V14.01,2013-02-20 22:18:00,
2013-02-20 16:21:00,45.6,38.8,29.81,SE,129,8.0,21.0,77,0.00,,---,0.23,VWS V14.01,2013-02-20 22:21:00,
2013-02-20 16:24:00,45.6,38.8,29.81,SE,133,11.0,21.0,77,0.00,,---,0.23,VWS V14.01,2013-02-20 22:24:00,
2013-02-20 16:27:00,45.7,38.9,29.82,ESE,111,11.0,21.0,77,0.00,,---,0.23,VWS V14.01,2013-02-20 22:27:00,
2013-02-20 16:30:00,45.7,39.2,29.82,ESE,117,10.0,21.0,78,0.00,,---,0.23,VWS V14.01,2013-02-20 22:30:00,
2013-02-20 16:33:00,45.7,38.9,29.82,ESE,113,9.0,16.0,77,0.00,,---,0.23,VWS V14.01,2013-02-20 22:33:00,
2013-02-20 16:36:00,45.6,39.2,29.82,SE,130,8.0,16.0,78,0.00,,---,0.23,VWS V14.01,2013-02-20 22:36:00,
2013-02-20 16:39:00,45.6,39.2,29.82,ESE,102,7.0,16.0,78,0.00,,---,0.23,VWS V14.01,2013-02-20 22:39:00,
2013-02-20 16:43:00,45.6,39.2,29.82,SE,124,12.0,16.0,78,0.00,,---,0.23,VWS V14.01,2013-02-20 22:43:00,
2013-02-20 16:46:00,45.6,39.2,29.82,ESE,122,7.0,16.0,78,0.00,,---,0.23,VWS V14.01,2013-02-20 22:46:00,
2013-02-20 16:49:00,45.6,39.2,29.82,East,94,2.0,16.0,78,0.00,,---,0.23,VWS V14.01,2013-02-20 22:49:00,
2013-02-20 16:52:00,45.5,39.0,29.82,East,101,10.0,16.0,78,0.00,,---,0.23,VWS V14.01,2013-02-20 22:52:00,
2013-02-20 16:55:00,45.5,39.0,29.82,ESE,113,9.0,16.0,78,0.00,,---,0.23,VWS V14.01,2013-02-20 22:55:00,
2013-02-20 16:58:00,45.5,39.0,29.82,ESE,113,15.0,16.0,78,0.00,,---,0.23,VWS V14.01,2013-02-20 22:58:00,
2013-02-20 17:00:00,45.4,38.6,29.82,ESE,121,12.0,16.0,77,0.00,,---,0.23,VWS V14.01,2013-02-20 23:00:00,
2013-02-20 17:01:00,45.4,39.0,29.82,ESE,122,12.0,19.0,78,0.00,,---,0.23,VWS V14.01,2013-02-20 23:01:00,
2013-02-20 17:04:00,45.4,39.0,29.82,ESE,123,11.0,19.0,78,0.00,,---,0.23,VWS V14.01,2013-02-20 23:04:00,
2013-02-20 17:07:00,45.3,38.9,29.82,ESE,112,8.0,19.0,78,0.00,,---,0.23,VWS V14.01,2013-02-20 23:07:00,
2013-02-20 17:10:00,45.3,38.9,29.82,ESE,105,10.0,19.0,78,0.00,,---,0.23,VWS V14.01,2013-02-20 23:10:00,
2013-02-20 17:13:00,45.4,39.0,29.82,SE,136,8.0,19.0,78,0.00,,---,0.23,VWS V14.01,2013-02-20 23:13:00,
2013-02-20 17:16:00,45.3,38.9,29.82,ESE,108,10.0,19.0,78,0.00,,---,0.23,VWS V14.01,2013-02-20 23:16:00,
2013-02-20 17:19:00,45.2,38.8,29.82,SE,128,12.0,19.0,78,0.00,,---,0.23,VWS V14.01,2013-02-20 23:19:00,
2013-02-20 17:22:00,45.2,38.8,29.81,ESE,113,10.0,19.0,78,0.00,,---,0.23,VWS V14.01,2013-02-20 23:22:00,
2013-02-20 17:25:00,45.2,38.8,29.81,ESE,113,8.0,19.0,78,0.00,,---,0.23,VWS V14.01,2013-02-20 23:25:00,
2013-02-20 17:28:00,45.2,39.1,29.81,ESE,105,15.0,19.0,79,0.00,,---,0.23,VWS V14.01,2013-02-20 23:28:00,
2013-02-20 17:30:00,45.1,39.0,29.81,ESE,115,11.0,19.0,79,0.00,,---,0.23,VWS V14.01,2013-02-20 23:30:00,
2013-02-20 17:31:00,45.1,39.0,29.81,ESE,105,10.0,13.0,79,0.00,,---,0.23,VWS V14.01,2013-02-20 23:31:00,
2013-02-20 17:34:00,45.1,39.0,29.81,ESE,110,14.0,18.0,79,0.00,,---,0.23,VWS V14.01,2013-02-20 23:34:00,
2013-02-20 17:37:00,45.0,38.9,29.80,ESE,120,11.0,18.0,79,0.00,,---,0.23,VWS V14.01,2013-02-20 23:37:00,
2013-02-20 17:40:00,44.9,38.8,29.80,SE,131,13.0,18.0,79,0.00,,---,0.23,VWS V14.01,2013-02-20 23:40:00,
2013-02-20 17:43:00,44.9,38.8,29.80,East,101,9.0,18.0,79,0.00,,---,0.23,VWS V14.01,2013-02-20 23:43:00,
2013-02-20 17:46:00,44.9,38.8,29.80,ESE,117,11.0,19.0,79,0.00,,---,0.23,VWS V14.01,2013-02-20 23:46:00,
2013-02-20 17:49:00,44.8,38.7,29.80,ESE,111,11.0,19.0,79,0.00,,---,0.23,VWS V14.01,2013-02-20 23:49:00,
2013-02-20 17:52:00,44.7,38.6,29.80,ESE,102,9.0,19.0,79,0.00,,---,0.23,VWS V14.01,2013-02-20 23:52:00,
2013-02-20 17:55:00,44.7,38.9,29.80,ESE,115,9.0,19.0,80,0.00,,---,0.23,VWS V14.01,2013-02-20 23:55:00,
2013-02-20 17:58:00,44.6,38.8,29.80,ESE,104,10.0,19.0,80,0.00,,---,0.23,VWS V14.01,2013-02-20 23:58:00,
2013-02-20 18:00:00,44.6,38.8,29.79,ESE,115,12.0,19.0,80,0.00,,---,0.23,VWS V14.01,2013-02-21 00:00:00,
2013-02-20 18:01:00,44.6,38.5,29.80,ESE,114,11.0,15.0,79,0.00,,---,0.23,VWS V14.01,2013-02-21 00:01:00,
2013-02-20 18:04:00,44.5,38.4,29.80,East,94,10.0,18.0,79,0.00,,---,0.23,VWS V14.01,2013-02-21 00:04:00,
2013-02-20 18:07:00,44.5,38.7,29.80,ESE,120,7.0,18.0,80,0.00,,---,0.23,VWS V14.01,2013-02-21 00:07:00,
2013-02-20 18:10:00,44.5,38.7,29.80,ESE,105,14.0,18.0,80,0.00,,---,0.23,VWS V14.01,2013-02-21 00:10:00,
2013-02-20 18:13:00,44.5,38.4,29.80,ESE,122,11.0,18.0,79,0.00,,---,0.23,VWS V14.01,2013-02-21 00:13:00,
2013-02-20 18:16:00,44.5,38.7,29.80,ESE,107,9.0,18.0,80,0.00,,---,0.23,VWS V14.01,2013-02-21 00:16:00,
2013-02-20 18:19:00,44.5,38.7,29.80,ESE,108,15.0,18.0,80,0.00,,---,0.23,VWS V14.01,2013-02-21 00:19:00,
2013-02-20 18:22:00,44.4,38.6,29.80,ESE,117,10.0,18.0,80,0.00,,---,0.23,VWS V14.01,2013-02-21 00:22:00,
2013-02-20 18:25:00,44.4,38.6,29.80,East,92,11.0,18.0,80,0.00,,---,0.23,VWS V14.01,2013-02-21 00:25:00,
2013-02-20 18:28:00,44.4,38.6,29.80,East,91,9.0,18.0,80,0.00,,---,0.23,VWS V14.01,2013-02-21 00:28:00,
2013-02-20 18:30:00,44.4,38.6,29.80,ESE,121,9.0,18.0,80,0.00,,---,0.23,VWS V14.01,2013-02-21 00:30:00,
2013-02-20 18:31:00,44.3,38.5,29.80,ESE,111,13.0,17.0,80,0.00,,---,0.23,VWS V14.01,2013-02-21 00:31:00,
2013-02-20 18:34:00,44.3,38.5,29.80,ESE,102,11.0,17.0,80,0.00,,---,0.23,VWS V14.01,2013-02-21 00:34:00,
2013-02-20 18:37:00,44.3,38.5,29.80,SE,130,11.0,17.0,80,0.00,,---,0.23,VWS V14.01,2013-02-21 00:37:00,
2013-02-20 18:40:00,44.3,38.5,29.80,ESE,109,7.0,17.0,80,0.00,,---,0.23,VWS V14.01,2013-02-21 00:40:00,
2013-02-20 18:43:00,44.3,38.5,29.80,SE,133,7.0,17.0,80,0.00,,---,0.23,VWS V14.01,2013-02-21 00:43:00,
2013-02-20 18:46:00,44.3,38.5,29.79,ESE,109,10.0,17.0,80,0.00,,---,0.23,VWS V14.01,2013-02-21 00:46:00,
2013-02-20 18:49:00,44.3,38.5,29.79,East,98,16.0,18.0,80,0.00,,---,0.23,VWS V14.01,2013-02-21 00:49:00,
2013-02-20 18:52:00,44.3,38.5,29.79,East,91,10.0,18.0,80,0.00,,---,0.23,VWS V14.01,2013-02-21 00:52:00,
2013-02-20 18:55:00,44.2,38.4,29.78,East,89,9.0,18.0,80,0.00,,---,0.23,VWS V14.01,2013-02-21 00:55:00,
2013-02-20 18:59:00,44.2,38.4,29.78,ESE,120,10.0,21.0,80,0.00,,---,0.23,VWS V14.01,2013-02-21 00:59:00,
2013-02-20 19:00:00,44.2,38.4,29.78,East,97,8.0,21.0,80,0.00,,---,0.23,VWS V14.01,2013-02-21 01:00:00,
2013-02-20 19:02:00,44.1,38.3,29.78,East,98,9.0,20.0,80,0.00,,---,0.23,VWS V14.01,2013-02-21 01:02:00,
2013-02-20 19:05:00,44.1,38.7,29.78,ESE,107,7.0,20.0,81,0.00,,---,0.23,VWS V14.01,2013-02-21 01:05:00,
2013-02-20 19:08:00,43.9,38.5,29.78,ESE,110,12.0,20.0,81,0.00,,---,0.23,VWS V14.01,2013-02-21 01:08:00,
2013-02-20 19:11:00,43.8,38.4,29.77,ESE,113,14.0,20.0,81,0.00,,---,0.23,VWS V14.01,2013-02-21 01:11:00,
2013-02-20 19:14:00,43.7,38.3,29.77,East,94,13.0,20.0,81,0.00,,---,0.23,VWS V14.01,2013-02-21 01:14:00,
2013-02-20 19:17:00,43.6,38.2,29.77,East,99,15.0,20.0,81,0.00,,---,0.23,VWS V14.01,2013-02-21 01:17:00,
2013-02-20 19:20:00,43.5,38.4,29.77,ESE,114,12.0,20.0,82,0.00,,---,0.23,VWS V14.01,2013-02-21 01:20:00,
2013-02-20 19:23:00,43.4,38.3,29.76,ESE,109,11.0,20.0,82,0.00,,---,0.23,VWS V14.01,2013-02-21 01:23:00,
2013-02-20 19:26:00,43.3,38.2,29.77,ESE,117,17.0,24.0,82,0.00,,---,0.23,VWS V14.01,2013-02-21 01:26:00,
2013-02-20 19:29:00,43.3,38.5,29.77,SE,129,15.0,24.0,83,0.00,,---,0.23,VWS V14.01,2013-02-21 01:29:00,
2013-02-20 19:30:00,43.3,38.5,29.77,East,97,7.0,24.0,83,0.00,,---,0.23,VWS V14.01,2013-02-21 01:30:00,
2013-02-20 19:32:00,43.3,38.5,29.76,ESE,103,16.0,19.0,83,0.00,,---,0.23,VWS V14.01,2013-02-21 01:32:00,
2013-02-20 19:35:00,43.3,38.5,29.76,ESE,114,14.0,19.0,83,0.00,,---,0.23,VWS V14.01,2013-02-21 01:35:00,
2013-02-20 19:38:00,43.3,38.5,29.76,SE,131,13.0,23.0,83,0.00,,---,0.23,VWS V14.01,2013-02-21 01:38:00,
2013-02-20 19:41:00,43.3,38.5,29.76,ESE,105,11.0,23.0,83,0.00,,---,0.23,VWS V14.01,2013-02-21 01:41:00,
2013-02-20 19:44:00,43.3,38.5,29.76,ESE,106,14.0,23.0,83,0.00,,---,0.23,VWS V14.01,2013-02-21 01:44:00,
2013-02-20 19:47:00,43.2,38.4,29.76,ESE,123,13.0,23.0,83,0.00,,---,0.23,VWS V14.01,2013-02-21 01:47:00,
2013-02-20 19:50:00,43.3,38.5,29.76,ESE,106,9.0,23.0,83,0.00,,---,0.23,VWS V14.01,2013-02-21 01:50:00,
2013-02-20 19:53:00,43.3,38.5,29.76,ESE,111,8.0,23.0,83,0.00,,---,0.23,VWS V14.01,2013-02-21 01:53:00,
2013-02-20 19:56:00,43.3,38.5,29.76,East,80,10.0,23.0,83,0.00,,---,0.23,VWS V14.01,2013-02-21 01:56:00,
2013-02-20 19:59:00,43.3,38.5,29.76,East,96,11.0,23.0,83,0.00,,---,0.23,VWS V14.01,2013-02-21 01:59:00,
2013-02-20 20:00:00,43.3,38.5,29.76,ESE,105,9.0,23.0,83,0.00,,---,0.23,VWS V14.01,2013-02-21 02:00:00,
2013-02-20 20:02:00,43.2,38.4,29.76,East,99,15.0,23.0,83,0.00,,---,0.23,VWS V14.01,2013-02-21 02:02:00,
2013-02-20 20:05:00,43.2,38.4,29.76,East,100,17.0,23.0,83,0.00,,---,0.23,VWS V14.01,2013-02-21 02:05:00,
2013-02-20 20:08:00,43.2,38.4,29.76,SE,124,16.0,23.0,83,0.00,,---,0.23,VWS V14.01,2013-02-21 02:08:00,
2013-02-20 20:11:00,43.2,38.4,29.76,ESE,111,13.0,23.0,83,0.00,,---,0.23,VWS V14.01,2013-02-21 02:11:00,
2013-02-20 20:14:00,43.2,38.4,29.76,ESE,117,10.0,23.0,83,0.00,,---,0.23,VWS V14.01,2013-02-21 02:14:00,
2013-02-20 20:17:00,43.2,38.4,29.76,ESE,106,13.0,23.0,83,0.00,,---,0.23,VWS V14.01,2013-02-21 02:17:00,
2013-02-20 20:20:00,43.2,38.4,29.76,ESE,103,15.0,23.0,83,0.00,,---,0.23,VWS V14.01,2013-02-21 02:20:00,
2013-02-20 20:23:00,43.2,38.4,29.76,ESE,115,15.0,23.0,83,0.00,,---,0.23,VWS V14.01,2013-02-21 02:23:00,
2013-02-20 20:26:00,43.2,38.4,29.76,ESE,117,13.0,23.0,83,0.00,,---,0.23,VWS V14.01,2013-02-21 02:26:00,
2013-02-20 20:29:00,43.3,38.5,29.76,ESE,116,9.0,23.0,83,0.00,,---,0.23,VWS V14.01,2013-02-21 02:29:00,
2013-02-20 20:30:00,43.3,38.5,29.76,ESE,108,21.0,23.0,83,0.00,,---,0.23,VWS V14.01,2013-02-21 02:30:00,
2013-02-20 20:32:00,43.3,38.5,29.76,ESE,105,11.0,21.0,83,0.00,,---,0.23,VWS V14.01,2013-02-21 02:32:00,
2013-02-20 20:35:00,43.3,38.5,29.76,East,92,11.0,21.0,83,0.00,,---,0.23,VWS V14.01,2013-02-21 02:35:00,
2013-02-20 20:38:00,43.2,38.4,29.76,ESE,102,11.0,21.0,83,0.00,,---,0.23,VWS V14.01,2013-02-21 02:38:00,
2013-02-20 20:41:00,43.3,38.5,29.76,East,98,17.0,21.0,83,0.00,,---,0.23,VWS V14.01,2013-02-21 02:41:00,
2013-02-20 20:44:00,43.2,38.4,29.75,ESE,104,13.0,21.0,83,0.00,,---,0.23,VWS V14.01,2013-02-21 02:44:00,
2013-02-20 20:47:00,43.1,38.3,29.75,East,92,10.0,21.0,83,0.00,,---,0.23,VWS V14.01,2013-02-21 02:47:00,
2013-02-20 20:50:00,43.1,38.3,29.75,ESE,107,12.0,21.0,83,0.00,,---,0.23,VWS V14.01,2013-02-21 02:50:00,
2013-02-20 20:53:00,43.1,38.3,29.75,East,98,8.0,22.0,83,0.00,,---,0.23,VWS V14.01,2013-02-21 02:53:00,
2013-02-20 20:56:00,43.1,38.3,29.75,SE,130,12.0,22.0,83,0.00,,---,0.23,VWS V14.01,2013-02-21 02:56:00,
2013-02-20 20:59:00,43.1,38.3,29.75,ESE,111,12.0,22.0,83,0.00,,---,0.23,VWS V14.01,2013-02-21 02:59:00,
2013-02-20 21:00:00,43.1,38.3,29.75,ESE,110,12.0,22.0,83,0.00,,---,0.23,VWS V14.01,2013-02-21 03:00:00,
2013-02-20 21:02:00,43.1,38.3,29.75,East,86,14.0,18.0,83,0.00,,---,0.23,VWS V14.01,2013-02-21 03:02:00,
2013-02-20 21:06:00,43.1,38.3,29.75,East,86,10.0,18.0,83,0.00,,---,0.23,VWS V14.01,2013-02-21 03:06:00,
2013-02-20 21:09:00,43.1,38.3,29.75,East,101,19.0,19.0,83,0.00,,---,0.23,VWS V14.01,2013-02-21 03:09:00,
2013-02-20 21:12:00,43.1,38.6,29.75,East,97,8.0,19.0,84,0.00,,---,0.23,VWS V14.01,2013-02-21 03:12:00,
2013-02-20 21:15:00,43.1,38.6,29.75,East,99,10.0,19.0,84,0.00,,---,0.23,VWS V14.01,2013-02-21 03:15:00,
2013-02-20 21:18:00,43.1,38.3,29.75,ESE,119,8.0,19.0,83,0.00,,---,0.23,VWS V14.01,2013-02-21 03:18:00,
2013-02-20 21:21:00,43.1,38.3,29.74,ESE,115,15.0,19.0,83,0.00,,---,0.23,VWS V14.01,2013-02-21 03:21:00,
2013-02-20 21:24:00,43.1,38.6,29.74,ESE,115,9.0,19.0,84,0.00,,---,0.23,VWS V14.01,2013-02-21 03:24:00,
2013-02-20 21:27:00,43.2,38.7,29.74,ESE,105,12.0,19.0,84,0.00,,---,0.23,VWS V14.01,2013-02-21 03:27:00,
2013-02-20 21:30:00,43.2,38.4,29.74,ESE,115,15.0,22.0,83,0.00,,---,0.23,VWS V14.01,2013-02-21 03:30:00,
2013-02-20 21:33:00,43.2,38.4,29.74,ESE,103,9.0,19.0,83,0.00,,---,0.23,VWS V14.01,2013-02-21 03:33:00,
2013-02-20 21:36:00,43.2,38.4,29.74,East,96,10.0,22.0,83,0.00,,---,0.23,VWS V14.01,2013-02-21 03:36:00,
2013-02-20 21:39:00,43.3,38.8,29.73,ESE,102,10.0,22.0,84,0.00,,---,0.23,VWS V14.01,2013-02-21 03:39:00,
2013-02-20 21:42:00,43.3,38.8,29.73,East,94,8.0,23.0,84,0.00,,---,0.23,VWS V14.01,2013-02-21 03:42:00,
2013-02-20 21:45:00,43.3,38.8,29.73,East,95,11.0,23.0,84,0.00,,---,0.23,VWS V14.01,2013-02-21 03:45:00,
2013-02-20 21:48:00,43.2,38.7,29.72,ESE,107,16.0,23.0,84,0.00,,---,0.23,VWS V14.01,2013-02-21 03:48:00,
2013-02-20 21:51:00,43.2,38.7,29.73,East,90,13.0,23.0,84,0.00,,---,0.23,VWS V14.01,2013-02-21 03:51:00,
2013-02-20 21:54:00,43.2,39.0,29.72,East,91,11.0,23.0,85,0.00,,---,0.23,VWS V14.01,2013-02-21 03:54:00,
2013-02-20 21:57:00,43.2,39.0,29.72,ESE,119,9.0,23.0,85,0.00,,---,0.23,VWS V14.01,2013-02-21 03:57:00,
2013-02-20 22:00:00,43.2,39.0,29.72,East,95,14.0,23.0,85,0.00,,---,0.23,VWS V14.01,2013-02-21 04:00:00,
2013-02-20 22:03:00,43.2,38.7,29.72,ESE,119,14.0,21.0,84,0.00,,---,0.23,VWS V14.01,2013-02-21 04:03:00,
2013-02-20 22:06:00,43.2,39.0,29.71,East,89,16.0,21.0,85,0.00,,---,0.23,VWS V14.01,2013-02-21 04:06:00,
2013-02-20 22:09:00,43.2,39.0,29.71,ESE,108,15.0,21.0,85,0.00,,---,0.23,VWS V14.01,2013-02-21 04:09:00,
2013-02-20 22:12:00,43.2,39.0,29.71,ESE,115,10.0,21.0,85,0.00,,---,0.23,VWS V14.01,2013-02-21 04:12:00,
2013-02-20 22:15:00,43.2,39.0,29.71,SE,127,14.0,21.0,85,0.00,,---,0.23,VWS V14.01,2013-02-21 04:15:00,
2013-02-20 22:18:00,43.2,39.0,29.71,ESE,105,18.0,21.0,85,0.00,,---,0.23,VWS V14.01,2013-02-21 04:18:00,
2013-02-20 22:21:00,43.2,39.0,29.71,ESE,103,20.0,21.0,85,0.00,,---,0.23,VWS V14.01,2013-02-21 04:21:00,
2013-02-20 22:24:00,43.2,39.0,29.71,ESE,113,11.0,21.0,85,0.00,,---,0.23,VWS V14.01,2013-02-21 04:24:00,
2013-02-20 22:27:00,43.2,39.0,29.71,East,93,15.0,22.0,85,0.00,,---,0.23,VWS V14.01,2013-02-21 04:27:00,
2013-02-20 22:30:00,43.2,39.0,29.70,East,99,11.0,22.0,85,0.00,,---,0.23,VWS V14.01,2013-02-21 04:30:00,
2013-02-20 22:33:00,43.2,39.3,29.70,East,94,14.0,21.0,86,0.00,,---,0.23,VWS V14.01,2013-02-21 04:33:00,
2013-02-20 22:36:00,43.2,39.3,29.70,ESE,107,9.0,21.0,86,0.00,,---,0.23,VWS V14.01,2013-02-21 04:36:00,
2013-02-20 22:39:00,43.2,39.3,29.70,ESE,113,9.0,21.0,86,0.00,,---,0.23,VWS V14.01,2013-02-21 04:39:00,
2013-02-20 22:42:00,43.2,39.3,29.70,ESE,103,12.0,21.0,86,0.00,,---,0.23,VWS V14.01,2013-02-21 04:42:00,
2013-02-20 22:45:00,43.1,39.2,29.69,ESE,105,12.0,25.0,86,0.00,,---,0.23,VWS V14.01,2013-02-21 04:45:00,
2013-02-20 22:48:00,43.0,39.1,29.69,SE,124,13.0,25.0,86,0.00,,---,0.23,VWS V14.01,2013-02-21 04:48:00,
2013-02-20 22:51:00,43.0,39.1,29.69,ESE,109,14.0,25.0,86,0.00,,---,0.23,VWS V14.01,2013-02-21 04:51:00,
2013-02-20 22:54:00,42.9,39.3,29.69,ESE,109,11.0,25.0,87,0.00,,---,0.23,VWS V14.01,2013-02-21 04:54:00,
2013-02-20 22:57:00,42.9,39.3,29.69,East,101,11.0,25.0,87,0.00,,---,0.23,VWS V14.01,2013-02-21 04:57:00,
2013-02-20 23:00:00,42.9,39.3,29.69,ESE,112,9.0,25.0,87,0.00,,---,0.23,VWS V14.01,2013-02-21 05:00:00,
2013-02-20 23:01:00,42.9,39.3,29.69,ESE,112,11.0,19.0,87,0.00,,---,0.23,VWS V14.01,2013-02-21 05:01:00,
2013-02-20 23:04:00,42.9,39.3,29.69,East,99,17.0,20.0,87,0.00,,---,0.23,VWS V14.01,2013-02-21 05:04:00,